createdAt,value
2023-06-15T00:00:01.090Z,71.9
2023-06-15T00:05:01.179Z,72.8
2023-06-15T00:10:02.283Z,74.4
2023-06-15T00:15:01.101Z,73.7
2023-06-15T00:20:01.057Z,73.4
2023-06-15T00:25:01.105Z,73.2
2023-06-15T00:30:01.063Z,73.2
2023-06-15T00:35:01.109Z,72.1
2023-06-15T00:40:01.059Z,74.1
2023-06-15T00:45:01.117Z,77.2
2023-06-15T00:50:01.038Z,77.7
2023-06-15T00:55:01.103Z,78.3
2023-06-15T01:00:01.095Z,78.8
2023-06-15T01:05:01.112Z,77.7
2023-06-15T01:10:01.046Z,74.2
2023-06-15T01:15:01.116Z,73.3
2023-06-15T01:20:01.086Z,72.8
2023-06-15T01:25:01.171Z,72.2
2023-06-15T01:30:01.087Z,74.6
2023-06-15T01:35:01.244Z,75.6
2023-06-15T01:40:01.072Z,76.3
2023-06-15T01:45:01.136Z,77.3
2023-06-15T01:50:01.156Z,79.2
2023-06-15T01:55:01.157Z,80.7
2023-06-15T02:00:01.129Z,80.2
2023-06-15T02:25:01.679Z,79.0
2023-06-15T02:30:01.565Z,80.8
2023-06-15T02:35:01.728Z,81.6
2023-06-15T02:40:01.611Z,83.2
2023-06-15T02:45:01.716Z,85.0
2023-06-15T02:50:01.583Z,87.1
2023-06-15T02:55:01.694Z,87.9
2023-06-15T03:00:01.553Z,87.6
2023-06-15T03:05:01.661Z,86.1
2023-06-15T03:10:01.551Z,84.0
2023-06-15T03:15:01.606Z,82.8
2023-06-15T03:20:01.644Z,82.2
2023-06-15T03:25:01.698Z,81.9
2023-06-15T03:30:01.540Z,82.9
2023-06-15T03:35:01.701Z,83.8
2023-06-15T03:40:01.535Z,84.3
2023-06-15T03:45:01.680Z,85.0
2023-06-15T03:50:01.592Z,84.6
2023-06-15T03:55:01.581Z,82.8
2023-06-15T04:00:01.630Z,81.0
2023-06-15T04:05:01.649Z,80.1
2023-06-15T04:10:01.608Z,80.4
2023-06-15T04:15:01.697Z,79.8
2023-06-15T04:20:01.540Z,79.5
2023-06-15T04:25:01.697Z,78.9
2023-06-15T04:30:01.597Z,77.7
2023-06-15T04:35:01.761Z,75.8
2023-06-15T04:40:01.690Z,75.2
2023-06-15T04:45:01.719Z,74.8
2023-06-15T04:50:01.642Z,74.6
2023-06-15T04:55:01.544Z,73.8
2023-06-15T05:00:01.495Z,72.4
2023-06-15T05:05:01.651Z,72.1
2023-06-15T05:10:01.539Z,71.0
2023-06-15T05:15:01.551Z,70.1
2023-06-15T05:20:01.466Z,69.2
2023-06-15T05:25:01.647Z,68.3
2023-06-15T05:30:01.499Z,67.6
2023-06-15T05:35:01.624Z,68.0
2023-06-15T05:45:01.603Z,68.4
2023-06-15T05:50:01.451Z,68.7
2023-06-15T05:55:01.544Z,68.9
2023-06-15T06:00:01.456Z,69.0
2023-06-15T06:10:01.586Z,69.1
2023-06-15T06:15:01.508Z,69.0
2023-06-15T06:20:01.424Z,69.4
2023-06-15T06:25:01.490Z,70.2
2023-06-15T06:30:01.446Z,71.4
2023-06-15T06:35:01.566Z,72.3
2023-06-15T06:40:01.421Z,74.2
2023-06-15T06:45:01.601Z,79.5
2023-06-15T06:50:01.452Z,80.9
2023-06-15T06:55:01.532Z,85.5
2023-06-15T07:00:01.554Z,93.7
2023-06-15T07:05:06.589Z,104.3
2023-06-15T07:10:01.403Z,111.8
2023-06-15T07:15:01.516Z,128.2
2023-06-15T07:20:01.457Z,141.9
2023-06-15T07:25:01.578Z,151.2
2023-06-15T07:30:01.441Z,159.4
2023-06-15T07:35:01.481Z,165.5
2023-06-15T07:40:01.388Z,166.4
2023-06-15T07:45:01.489Z,166.0
2023-06-15T07:50:01.390Z,164.2
2023-06-15T07:55:01.448Z,157.8
2023-06-15T08:00:01.369Z,153.6
2023-06-15T08:05:01.513Z,141.4
2023-06-15T08:10:01.358Z,127.1
2023-06-15T08:15:01.496Z,111.5
2023-06-15T08:20:01.463Z,100.2
2023-06-15T08:25:02.482Z,92.3
2023-06-15T08:30:01.370Z,94.2
2023-06-15T08:35:01.407Z,105.1
2023-06-15T08:40:06.373Z,122.6
2023-06-15T08:45:01.500Z,139.1
2023-06-15T08:50:01.338Z,152.0
2023-06-15T09:15:01.224Z,171.4
2023-06-15T09:20:01.125Z,160.4
2023-06-15T09:25:01.191Z,163.5
2023-06-15T09:30:01.116Z,155.2
2023-06-15T09:35:01.329Z,157.4
2023-06-15T09:40:01.139Z,157.2
2023-06-15T09:45:01.247Z,159.6
2023-06-15T09:50:01.131Z,153.9
2023-06-15T09:55:01.251Z,152.0
2023-06-15T10:00:01.117Z,146.4
2023-06-15T10:05:01.266Z,133.9
2023-06-15T10:10:01.131Z,122.3
2023-06-15T10:15:01.272Z,115.3
2023-06-15T10:20:01.118Z,106.4
2023-06-15T10:25:01.198Z,94.2
2023-06-15T10:30:01.119Z,88.2
2023-06-15T10:45:01.205Z,77.6
2023-06-15T11:05:01.584Z,76.8
2023-06-15T11:10:01.435Z,76.6
2023-06-15T11:15:01.494Z,76.7
2023-06-15T11:20:01.354Z,76.8
2023-06-15T11:25:01.529Z,76.4
2023-06-15T11:30:01.348Z,76.1
2023-06-15T11:35:01.506Z,75.8
2023-06-15T11:40:01.343Z,75.7
2023-06-15T11:45:01.498Z,81.5
2023-06-15T11:50:01.343Z,81.4
2023-06-15T12:00:01.407Z,81.2
2023-06-15T12:05:01.639Z,81.0
2023-06-15T12:10:01.325Z,75.2
2023-06-15T12:15:01.419Z,75.4
2023-06-15T12:20:01.327Z,75.2
2023-06-15T12:25:01.506Z,75.5
2023-06-15T12:30:01.417Z,75.6
2023-06-15T12:35:01.377Z,75.3
2023-06-15T12:40:01.401Z,75.6
2023-06-15T12:45:01.508Z,75.9
2023-06-15T12:50:01.336Z,76.2
2023-06-15T12:55:01.471Z,75.4
2023-06-15T13:00:01.311Z,75.0
2023-06-15T13:05:01.458Z,74.7
2023-06-15T13:10:01.315Z,74.4
2023-06-15T13:15:01.503Z,74.2
2023-06-15T13:20:01.329Z,74.8
2023-06-15T13:25:01.581Z,75.0
2023-06-15T13:30:01.359Z,75.7
2023-06-15T13:35:01.390Z,76.1
2023-06-15T13:40:01.383Z,76.5
2023-06-15T13:45:01.469Z,77.0
2023-06-15T13:50:01.422Z,77.4
2023-06-15T13:55:02.941Z,77.0
2023-06-15T14:00:01.353Z,77.2
2023-06-15T14:05:01.515Z,76.9
2023-06-15T14:10:01.260Z,76.8
2023-06-15T14:15:01.438Z,76.5
2023-06-15T14:20:01.327Z,77.0
2023-06-15T14:25:01.489Z,76.5
2023-06-15T14:30:02.360Z,76.6
2023-06-15T14:35:01.306Z,76.4
2023-06-15T14:40:01.433Z,76.5
2023-06-15T14:45:01.404Z,76.4
2023-06-15T14:50:01.287Z,75.4
2023-06-15T14:55:01.386Z,75.6
2023-06-15T15:00:01.240Z,75.5
2023-06-15T15:05:01.381Z,75.8
2023-06-15T15:10:01.216Z,75.5
2023-06-15T15:15:01.277Z,76.8
2023-06-15T15:25:01.319Z,76.7
2023-06-15T15:30:01.240Z,76.7
2023-06-15T15:35:01.407Z,76.6
2023-06-15T15:40:01.201Z,76.2
2023-06-15T15:45:01.366Z,76.1
2023-06-15T15:50:01.332Z,76.2
2023-06-15T15:55:01.294Z,75.8
2023-06-15T16:00:01.217Z,75.9
2023-06-15T16:05:01.284Z,76.0
2023-06-15T16:15:01.344Z,76.4
2023-06-15T16:20:01.197Z,77.1
2023-06-15T16:25:01.339Z,76.8
2023-06-15T16:30:01.283Z,83.2
2023-06-15T16:40:01.288Z,82.9
2023-06-15T16:45:01.579Z,83.0
2023-06-15T16:50:01.164Z,83.1
2023-06-15T16:55:01.224Z,76.8
2023-06-15T17:00:01.149Z,76.5
2023-06-15T17:05:01.351Z,76.9
2023-06-15T17:10:01.151Z,75.9
2023-06-15T17:15:01.292Z,75.8
2023-06-15T17:20:01.135Z,76.1
2023-06-15T17:25:01.288Z,76.4
2023-06-15T17:30:01.134Z,76.0
2023-06-15T17:35:01.386Z,75.8
2023-06-15T17:40:01.174Z,76.2
2023-06-15T17:45:01.298Z,75.5
2023-06-15T17:50:01.165Z,75.2
2023-06-15T18:00:01.184Z,74.6
2023-06-15T18:05:01.274Z,74.9
2023-06-15T18:10:01.127Z,74.3
2023-06-15T18:15:01.202Z,73.4
2023-06-15T18:25:01.208Z,74.1
2023-06-15T18:30:01.178Z,74.2
2023-06-15T18:35:01.250Z,75.0
2023-06-15T18:45:01.244Z,76.2
2023-06-15T18:50:01.173Z,76.7
2023-06-15T18:55:01.182Z,76.6
2023-06-15T19:00:06.168Z,76.8
2023-06-15T19:05:01.242Z,76.4
2023-06-15T19:10:01.123Z,76.6
2023-06-15T19:15:01.250Z,76.8
2023-06-15T19:20:01.144Z,76.9
2023-06-15T19:25:01.220Z,76.4
2023-06-15T19:30:01.106Z,75.9
2023-06-15T19:35:02.203Z,74.7
2023-06-15T19:45:01.332Z,73.6
2023-06-15T19:55:01.245Z,73.8
2023-06-15T20:00:01.127Z,75.3
2023-06-15T20:05:01.207Z,77.6
2023-06-15T20:10:01.117Z,82.6
2023-06-15T20:20:01.176Z,88.4
2023-06-15T20:25:01.269Z,94.8
2023-06-15T20:30:01.111Z,101.8
2023-06-15T20:35:02.220Z,108.5
2023-06-15T20:40:01.127Z,113.4
2023-06-15T20:45:01.293Z,116.3
2023-06-15T20:50:01.199Z,117.1
2023-06-15T20:55:01.239Z,118.7
2023-06-15T21:00:01.134Z,121.2
2023-06-15T21:05:01.364Z,122.6
2023-06-15T21:10:01.113Z,124.6
2023-06-15T21:15:01.179Z,126.2
2023-06-15T21:20:01.112Z,124.2
2023-06-15T21:25:01.200Z,119.2
2023-06-15T21:30:01.141Z,113.9
2023-06-15T21:35:01.211Z,111.6
2023-06-15T21:40:01.182Z,110.0
2023-06-15T21:50:01.295Z,107.5
2023-06-15T21:55:01.840Z,105.3
2023-06-15T22:00:01.162Z,102.9
2023-06-15T22:05:01.276Z,95.9
2023-06-15T22:15:06.290Z,89.8
2023-06-15T22:20:01.161Z,85.8
2023-06-15T22:25:01.198Z,83.4
2023-06-15T22:30:01.137Z,81.9
2023-06-15T22:35:01.296Z,81.5
2023-06-15T22:40:01.147Z,81.0
2023-06-15T22:45:01.276Z,79.6
2023-06-15T22:50:01.314Z,78.4
2023-06-15T22:55:01.240Z,80.1
2023-06-15T23:00:01.128Z,81.8
2023-06-15T23:05:01.214Z,83.5
2023-06-15T23:15:01.306Z,84.1
2023-06-15T23:20:01.153Z,84.5
2023-06-15T23:25:01.231Z,81.4
2023-06-15T23:30:01.147Z,78.0
2023-06-15T23:35:01.431Z,77.9
2023-06-15T23:40:02.198Z,76.7
2023-06-15T23:45:01.311Z,76.6
2023-06-15T23:50:01.148Z,75.6
2023-06-15T23:55:01.297Z,75.4
